createdAt,value
2022-10-24T00:01:36.344Z,21.00
2022-10-24T00:06:37.352Z,21.00
2022-10-24T00:09:05.432Z,21.00
2022-10-24T00:11:33.392Z,20.90
2022-10-24T00:14:01.363Z,20.90
2022-10-24T00:16:30.997Z,20.90
2022-10-24T00:18:58.833Z,20.90
2022-10-24T00:21:26.660Z,20.90
2022-10-24T00:23:54.520Z,20.90
2022-10-24T00:26:22.349Z,20.90
2022-10-24T00:28:50.304Z,20.90
2022-10-24T00:31:22.349Z,20.90
2022-10-24T00:33:51.548Z,20.90
2022-10-24T00:36:22.043Z,20.90
2022-10-24T00:38:50.725Z,20.90
2022-10-24T00:41:20.066Z,20.80
2022-10-24T00:43:48.117Z,20.80
2022-10-24T00:46:17.583Z,20.80
2022-10-24T00:48:48.006Z,20.70
2022-10-24T00:51:24.455Z,20.70
2022-10-24T00:53:54.275Z,20.60
2022-10-24T00:56:26.767Z,20.50
2022-10-24T00:58:55.667Z,20.50
2022-10-24T01:01:25.127Z,20.40
2022-10-24T01:03:53.073Z,20.30
2022-10-24T01:06:35.622Z,20.30
2022-10-24T01:09:14.454Z,20.20
2022-10-24T01:11:53.925Z,20.10
2022-10-24T01:14:29.009Z,20.10
2022-10-24T01:17:05.911Z,20.00
2022-10-24T01:19:57.622Z,20.00
2022-10-24T01:22:34.161Z,19.90
2022-10-24T01:25:10.308Z,19.90
2022-10-24T01:27:55.265Z,19.80
2022-10-24T01:30:25.705Z,19.70
2022-10-24T01:33:01.436Z,19.70
2022-10-24T01:35:40.150Z,19.60
2022-10-24T01:38:15.859Z,19.60
2022-10-24T01:40:50.712Z,19.50
2022-10-24T01:43:22.784Z,19.40
2022-10-24T01:45:58.227Z,19.40
2022-10-24T01:48:27.289Z,19.40
2022-10-24T01:50:56.861Z,19.30
2022-10-24T01:53:28.748Z,19.30
2022-10-24T01:55:57.778Z,19.20
2022-10-24T01:58:25.765Z,19.20
2022-10-24T02:00:58.754Z,19.20
2022-10-24T02:03:32.032Z,19.10
2022-10-24T02:06:04.316Z,19.10
2022-10-24T02:08:39.969Z,19.10
2022-10-24T02:11:10.409Z,19.00
2022-10-24T02:13:45.074Z,19.00
2022-10-24T02:16:17.520Z,19.00
2022-10-24T02:18:46.195Z,19.00
2022-10-24T02:21:25.418Z,18.90
2022-10-24T02:23:56.873Z,18.90
2022-10-24T02:26:32.169Z,18.90
2022-10-24T02:29:03.577Z,18.90
2022-10-24T02:31:37.055Z,18.80
2022-10-24T02:34:07.935Z,18.80
2022-10-24T02:36:37.065Z,18.80
2022-10-24T02:39:07.993Z,18.80
2022-10-24T02:41:38.450Z,18.80
2022-10-24T02:44:08.746Z,18.70
2022-10-24T02:46:38.780Z,18.70
2022-10-24T02:49:07.306Z,18.70
2022-10-24T02:51:39.024Z,18.60
2022-10-24T02:54:07.053Z,18.60
2022-10-24T02:56:36.163Z,18.60
2022-10-24T02:59:04.023Z,18.60
2022-10-24T03:01:31.921Z,18.50
2022-10-24T03:04:01.206Z,18.50
2022-10-24T03:06:29.232Z,18.50
2022-10-24T03:08:57.069Z,18.50
2022-10-24T03:11:25.042Z,18.50
2022-10-24T03:13:52.859Z,18.50
2022-10-24T03:16:20.727Z,18.50
2022-10-24T03:18:48.521Z,18.50
2022-10-24T03:21:17.713Z,18.50
2022-10-24T03:23:45.520Z,18.50
2022-10-24T03:26:13.309Z,18.50
2022-10-24T03:28:41.173Z,18.50
2022-10-24T03:31:09.422Z,18.50
2022-10-24T03:33:37.271Z,18.50
2022-10-24T03:36:06.434Z,18.40
2022-10-24T03:38:35.661Z,18.50
2022-10-24T03:41:03.521Z,18.40
2022-10-24T03:43:31.337Z,18.40
2022-10-24T03:45:59.572Z,18.50
2022-10-24T03:48:27.520Z,18.50
2022-10-24T03:50:55.413Z,18.50
2022-10-24T03:53:23.264Z,18.50
2022-10-24T03:55:52.469Z,18.50
2022-10-24T03:58:20.359Z,18.50
2022-10-24T04:00:48.322Z,18.40
2022-10-24T04:03:16.304Z,18.40
2022-10-24T04:05:44.135Z,18.40
2022-10-24T04:08:11.933Z,18.40
2022-10-24T04:10:39.733Z,18.40
2022-10-24T04:13:08.894Z,18.40
2022-10-24T04:15:36.787Z,18.40
2022-10-24T04:18:04.960Z,18.40
2022-10-24T04:20:32.772Z,18.40
2022-10-24T04:23:03.645Z,18.40
2022-10-24T04:25:32.401Z,18.40
2022-10-24T04:28:00.244Z,18.40
2022-10-24T04:30:30.030Z,18.40
2022-10-24T04:32:58.268Z,18.40
2022-10-24T04:35:26.608Z,18.40
2022-10-24T04:37:54.748Z,18.40
2022-10-24T04:40:22.734Z,18.50
2022-10-24T04:42:50.545Z,18.50
2022-10-24T04:45:18.543Z,18.50
2022-10-24T04:47:47.932Z,18.50
2022-10-24T04:50:15.928Z,18.50
2022-10-24T04:52:43.712Z,18.50
2022-10-24T04:55:11.528Z,18.50
2022-10-24T04:57:39.344Z,18.50
2022-10-24T05:00:08.684Z,18.50
2022-10-24T05:02:36.545Z,18.50
2022-10-24T05:05:06.779Z,18.50
2022-10-24T05:07:34.683Z,18.40
2022-10-24T05:10:02.493Z,18.50
2022-10-24T05:12:30.354Z,18.40
2022-10-24T05:14:58.605Z,18.40
2022-10-24T05:17:26.399Z,18.40
2022-10-24T05:19:54.297Z,18.40
2022-10-24T05:22:24.123Z,18.30
2022-10-24T05:24:52.162Z,18.40
2022-10-24T05:27:24.505Z,18.30
2022-10-24T05:29:52.710Z,18.30
2022-10-24T05:32:22.146Z,18.30
2022-10-24T05:34:49.998Z,18.30
2022-10-24T05:37:17.958Z,18.30
2022-10-24T05:39:47.178Z,18.30
2022-10-24T05:42:15.343Z,18.30
2022-10-24T05:44:43.275Z,18.30
2022-10-24T05:47:11.249Z,18.30
2022-10-24T05:49:39.080Z,18.30
2022-10-24T05:52:07.025Z,18.30
2022-10-24T05:54:48.368Z,18.30
2022-10-24T05:57:24.120Z,18.30
2022-10-24T05:59:51.916Z,18.30
2022-10-24T06:02:20.976Z,18.30
2022-10-24T06:04:50.618Z,18.20
2022-10-24T06:07:19.208Z,18.20
2022-10-24T06:09:47.077Z,18.20
2022-10-24T06:12:14.916Z,18.20
2022-10-24T06:14:44.625Z,18.20
2022-10-24T06:17:12.758Z,18.20
2022-10-24T06:19:41.114Z,18.20
2022-10-24T06:22:09.693Z,18.20
2022-10-24T06:24:38.702Z,18.10
2022-10-24T06:27:07.393Z,18.20
2022-10-24T06:29:35.758Z,18.10
2022-10-24T06:32:05.173Z,18.10
2022-10-24T06:34:33.046Z,18.10
2022-10-24T06:37:00.885Z,18.10
2022-10-24T06:39:28.797Z,18.10
2022-10-24T06:41:56.645Z,18.10
2022-10-24T06:44:24.445Z,18.10
2022-10-24T06:46:52.265Z,18.10
2022-10-24T06:49:21.549Z,18.10
2022-10-24T06:51:49.418Z,18.10
2022-10-24T06:54:17.548Z,18.10
2022-10-24T06:56:45.463Z,18.10
2022-10-24T06:59:16.252Z,18.10
2022-10-24T07:01:44.539Z,18.10
2022-10-24T07:04:12.451Z,18.20
2022-10-24T07:06:42.093Z,18.20
2022-10-24T07:09:14.433Z,18.20
2022-10-24T07:11:43.553Z,18.20
2022-10-24T07:14:11.737Z,18.20
2022-10-24T07:16:40.095Z,18.20
2022-10-24T07:19:08.182Z,18.20
2022-10-24T07:21:36.684Z,18.30
2022-10-24T07:24:06.810Z,18.20
2022-10-24T07:26:34.689Z,18.30
2022-10-24T07:31:37.795Z,18.30
2022-10-24T07:34:08.549Z,18.30
2022-10-24T07:36:41.368Z,18.30
2022-10-24T07:39:13.259Z,18.30
2022-10-24T07:41:42.196Z,18.30
2022-10-24T07:44:11.194Z,18.30
2022-10-24T07:46:39.217Z,18.30
2022-10-24T07:49:07.138Z,18.30
2022-10-24T07:51:34.929Z,18.30
2022-10-24T07:54:02.779Z,18.40
2022-10-24T07:56:31.989Z,18.40
2022-10-24T07:59:05.914Z,18.40
2022-10-24T08:01:37.245Z,18.40
2022-10-24T08:04:05.324Z,18.50
2022-10-24T08:06:33.386Z,18.50
2022-10-24T08:09:01.330Z,18.50
2022-10-24T08:11:32.613Z,18.50
2022-10-24T08:14:02.252Z,18.50
2022-10-24T08:16:30.153Z,18.50
2022-10-24T08:18:58.761Z,18.50
2022-10-24T08:21:26.854Z,18.50
2022-10-24T08:23:56.854Z,18.50
2022-10-24T08:26:26.484Z,18.50
2022-10-24T08:28:57.431Z,18.50
2022-10-24T08:31:26.648Z,18.60
2022-10-24T08:33:56.060Z,18.60
2022-10-24T08:36:27.821Z,18.60
2022-10-24T08:38:56.107Z,18.60
2022-10-24T08:41:31.426Z,18.60
2022-10-24T08:44:03.427Z,18.60
2022-10-24T08:46:53.704Z,18.60
2022-10-24T08:49:29.136Z,18.70
2022-10-24T08:52:01.361Z,18.70
2022-10-24T08:54:36.782Z,18.70
2022-10-24T08:57:07.269Z,18.70
2022-10-24T08:59:37.710Z,18.70
2022-10-24T09:02:13.934Z,18.80
2022-10-24T09:04:47.623Z,18.80
2022-10-24T09:07:19.230Z,18.90
2022-10-24T09:09:51.053Z,18.90
2022-10-24T09:12:21.173Z,19.00
2022-10-24T09:14:56.004Z,19.00
2022-10-24T09:17:26.447Z,19.10
2022-10-24T09:19:56.549Z,19.20
2022-10-24T09:22:26.337Z,19.20
2022-10-24T09:24:58.629Z,19.20
2022-10-24T09:27:29.802Z,19.30
2022-10-24T09:29:59.973Z,19.30
2022-10-24T09:32:31.131Z,19.30
2022-10-24T09:35:01.284Z,19.30
2022-10-24T09:37:42.854Z,19.40
2022-10-24T09:40:24.348Z,19.40
2022-10-24T09:42:55.702Z,19.40
2022-10-24T09:45:44.341Z,19.40
2022-10-24T09:48:27.557Z,19.40
2022-10-24T09:50:58.484Z,19.50
2022-10-24T09:53:29.541Z,19.50
2022-10-24T09:56:00.596Z,19.50
2022-10-24T09:58:32.715Z,19.50
2022-10-24T10:01:06.322Z,19.50
2022-10-24T10:03:35.871Z,19.50
2022-10-24T10:06:14.949Z,19.50
2022-10-24T10:08:50.143Z,19.60
2022-10-24T10:11:26.365Z,19.50
2022-10-24T10:13:55.474Z,19.60
2022-10-24T10:16:27.056Z,19.60
2022-10-24T10:19:05.362Z,19.60
2022-10-24T10:21:56.108Z,19.50
2022-10-24T10:24:29.486Z,19.60
2022-10-24T10:26:57.332Z,19.50
2022-10-24T10:29:25.540Z,19.50
2022-10-24T10:32:01.039Z,19.50
2022-10-24T10:34:38.212Z,19.50
2022-10-24T10:37:25.015Z,19.50
2022-10-24T10:40:14.924Z,19.50
2022-10-24T10:42:51.375Z,19.50
2022-10-24T10:45:34.167Z,19.50
2022-10-24T10:48:15.654Z,19.50
2022-10-24T10:50:50.264Z,19.50
2022-10-24T10:53:27.456Z,19.50
2022-10-24T10:56:02.558Z,19.50
2022-10-24T10:58:43.487Z,19.50
2022-10-24T11:01:18.208Z,19.40
2022-10-24T11:03:55.421Z,19.40
2022-10-24T11:06:39.936Z,19.40
2022-10-24T11:09:25.010Z,19.40
2022-10-24T11:12:01.898Z,19.40
2022-10-24T11:14:32.555Z,19.40
2022-10-24T11:17:05.942Z,19.40
2022-10-24T11:19:43.912Z,19.40
2022-10-24T11:22:18.409Z,19.30
2022-10-24T11:24:54.090Z,19.30
2022-10-24T11:27:27.489Z,19.30
2022-10-24T11:29:59.976Z,19.30
2022-10-24T11:32:35.069Z,19.20
2022-10-24T11:35:15.143Z,19.20
2022-10-24T11:37:46.241Z,19.20
2022-10-24T11:40:16.813Z,19.20
2022-10-24T11:42:52.514Z,19.20
2022-10-24T11:45:22.669Z,19.20
2022-10-24T11:48:10.993Z,19.10
2022-10-24T11:50:47.253Z,19.20
2022-10-24T11:53:26.145Z,19.10
2022-10-24T11:55:57.481Z,19.10
2022-10-24T11:58:27.953Z,19.10
2022-10-24T12:01:13.088Z,19.10
2022-10-24T12:04:06.113Z,19.10
2022-10-24T12:07:17.267Z,19.10
2022-10-24T12:10:03.512Z,19.00
2022-10-24T12:12:49.900Z,19.10
2022-10-24T12:15:32.287Z,19.00
2022-10-24T12:18:06.282Z,18.90
2022-10-24T12:20:34.584Z,18.90
2022-10-24T12:23:04.602Z,18.90
2022-10-24T12:25:35.357Z,18.90
2022-10-24T12:28:05.189Z,18.80
2022-10-24T12:30:35.819Z,18.80
2022-10-24T12:33:12.894Z,18.80
2022-10-24T12:35:51.780Z,18.80
2022-10-24T12:39:07.697Z,18.80
2022-10-24T12:41:46.217Z,18.70
2022-10-24T12:44:42.129Z,18.70
2022-10-24T12:47:33.171Z,18.70
2022-10-24T12:50:39.841Z,18.60
2022-10-24T12:53:19.505Z,18.60
2022-10-24T12:59:16.668Z,18.50
2022-10-24T13:01:44.943Z,18.50
2022-10-24T13:07:39.813Z,18.50
2022-10-24T13:10:34.388Z,18.50
2022-10-24T13:13:21.960Z,18.40
2022-10-24T13:15:58.926Z,18.40
2022-10-24T13:18:44.001Z,18.40
2022-10-24T13:21:27.402Z,18.40
2022-10-24T13:24:11.409Z,18.40
2022-10-24T13:26:41.880Z,18.30
2022-10-24T13:29:15.984Z,18.40
2022-10-24T13:31:50.327Z,18.30
2022-10-24T13:34:33.464Z,18.30
2022-10-24T13:37:09.239Z,18.30
2022-10-24T13:39:42.513Z,18.30
2022-10-24T13:42:22.224Z,18.30
2022-10-24T13:44:53.145Z,18.30
2022-10-24T13:47:26.420Z,18.30
2022-10-24T13:49:58.755Z,18.30
2022-10-24T13:52:33.442Z,18.30
2022-10-24T13:55:06.132Z,18.20
2022-10-24T13:57:37.425Z,18.20
2022-10-24T14:00:09.348Z,18.20
2022-10-24T14:02:43.379Z,18.20
2022-10-24T14:05:24.255Z,18.10
2022-10-24T14:07:52.140Z,18.10
2022-10-24T14:10:22.236Z,18.10
2022-10-24T14:12:56.849Z,18.10
2022-10-24T14:15:27.883Z,18.10
2022-10-24T14:18:00.349Z,18.10
2022-10-24T14:20:30.382Z,18.10
2022-10-24T14:22:59.075Z,18.10
2022-10-24T14:25:31.117Z,18.10
2022-10-24T14:28:01.464Z,18.00
2022-10-24T14:30:33.550Z,18.00
2022-10-24T14:33:25.917Z,18.00
2022-10-24T14:35:57.812Z,18.00
2022-10-24T14:38:27.825Z,17.90
2022-10-24T14:41:08.426Z,17.90
2022-10-24T14:43:40.173Z,17.80
2022-10-24T14:46:33.406Z,17.80
2022-10-24T14:49:22.504Z,17.80
2022-10-24T14:54:24.084Z,17.70
2022-10-24T14:56:54.309Z,17.70
2022-10-24T14:59:27.025Z,17.70
2022-10-24T15:01:57.078Z,17.60
2022-10-24T15:04:38.594Z,17.60
2022-10-24T15:07:28.107Z,17.60
2022-10-24T15:09:57.730Z,17.50
2022-10-24T15:12:28.573Z,17.50
2022-10-24T15:14:59.884Z,17.40
2022-10-24T15:17:32.700Z,17.40
2022-10-24T15:20:03.974Z,17.40
2022-10-24T15:22:34.445Z,17.30
2022-10-24T15:25:05.121Z,17.30
2022-10-24T15:27:40.139Z,17.30
2022-10-24T15:30:15.203Z,17.30
2022-10-24T15:32:43.527Z,17.20
2022-10-24T15:35:14.023Z,17.20
2022-10-24T15:37:42.224Z,17.20
2022-10-24T15:40:18.320Z,17.10
2022-10-24T15:42:46.463Z,17.10
2022-10-24T15:45:15.640Z,17.10
2022-10-24T15:47:44.810Z,17.10
2022-10-24T15:50:16.478Z,17.10
2022-10-24T15:52:47.143Z,17.10
2022-10-24T15:55:19.841Z,17.10
2022-10-24T15:57:48.307Z,17.00
2022-10-24T16:00:18.172Z,17.00
2022-10-24T16:02:50.180Z,17.00
2022-10-24T16:05:23.078Z,17.00
2022-10-24T16:07:52.371Z,17.00
2022-10-24T16:10:21.826Z,17.10
2022-10-24T16:12:50.556Z,17.00
2022-10-24T16:15:21.895Z,17.00
2022-10-24T16:17:50.159Z,17.00
2022-10-24T16:20:20.343Z,17.00
2022-10-24T16:22:48.581Z,17.00
2022-10-24T16:25:19.425Z,17.00
2022-10-24T16:27:48.402Z,17.00
2022-10-24T16:30:18.640Z,17.00
2022-10-24T16:32:47.212Z,17.00
2022-10-24T16:35:21.949Z,17.00
2022-10-24T16:37:49.758Z,17.00
2022-10-24T16:40:18.252Z,17.00
2022-10-24T16:42:46.755Z,16.90
2022-10-24T16:45:14.803Z,16.90
2022-10-24T16:47:42.709Z,16.90
2022-10-24T16:50:14.526Z,16.90
2022-10-24T16:52:44.859Z,16.90
2022-10-24T16:55:13.436Z,16.90
2022-10-24T16:57:41.240Z,16.90
2022-10-24T17:00:14.184Z,16.90
2022-10-24T17:02:43.151Z,16.90
2022-10-24T17:05:11.014Z,16.90
2022-10-24T17:07:38.864Z,16.90
2022-10-24T17:10:09.289Z,16.90
2022-10-24T17:12:37.108Z,16.90
2022-10-24T17:15:05.651Z,16.90
2022-10-24T17:17:33.835Z,16.90
2022-10-24T17:20:02.320Z,16.90
2022-10-24T17:22:30.687Z,16.90
2022-10-24T17:24:58.930Z,16.90
2022-10-24T17:27:28.341Z,16.90
2022-10-24T17:29:56.298Z,16.90
2022-10-24T17:32:24.355Z,16.90
2022-10-24T17:34:53.579Z,16.80
2022-10-24T17:37:28.072Z,16.90
2022-10-24T17:40:01.478Z,16.80
2022-10-24T17:42:30.916Z,16.80
2022-10-24T17:44:59.016Z,16.80
2022-10-24T17:47:27.529Z,16.80
2022-10-24T17:49:55.451Z,16.80
2022-10-24T17:52:24.987Z,16.80
2022-10-24T17:54:52.965Z,16.90
2022-10-24T17:57:20.839Z,16.90
2022-10-24T17:59:50.027Z,16.90
2022-10-24T18:02:17.945Z,16.90
2022-10-24T18:04:45.834Z,16.90
2022-10-24T18:07:13.958Z,16.90
2022-10-24T18:09:41.969Z,16.90
2022-10-24T18:12:10.341Z,16.90
2022-10-24T18:14:38.477Z,16.90
2022-10-24T18:17:07.623Z,16.90
2022-10-24T18:19:35.447Z,16.80
2022-10-24T18:22:03.265Z,16.80
2022-10-24T18:24:31.075Z,16.80
2022-10-24T18:26:58.897Z,16.80
2022-10-24T18:29:26.855Z,16.80
2022-10-24T18:31:54.680Z,16.80
2022-10-24T18:34:24.440Z,16.80
2022-10-24T18:36:54.957Z,16.80
2022-10-24T18:39:26.282Z,16.80
2022-10-24T18:42:03.096Z,16.80
2022-10-24T18:44:33.320Z,16.80
2022-10-24T18:47:03.372Z,16.80
2022-10-24T18:49:34.787Z,16.70
2022-10-24T18:52:14.493Z,16.70
2022-10-24T18:54:53.309Z,16.70
2022-10-24T18:57:24.946Z,16.70
2022-10-24T18:59:53.181Z,16.70
2022-10-24T19:02:29.492Z,16.70
2022-10-24T19:05:08.187Z,16.70
2022-10-24T19:07:36.493Z,16.70
2022-10-24T19:10:05.409Z,16.70
2022-10-24T19:12:33.491Z,16.70
2022-10-24T19:15:01.635Z,16.70
2022-10-24T19:17:29.579Z,16.70
2022-10-24T19:19:59.470Z,16.70
2022-10-24T19:22:29.868Z,16.70
2022-10-24T19:24:58.717Z,16.70
2022-10-24T19:27:26.811Z,16.70
2022-10-24T19:29:54.625Z,16.70
2022-10-24T19:32:22.419Z,16.70
2022-10-24T19:34:51.155Z,16.70
2022-10-24T19:37:19.414Z,16.70
2022-10-24T19:39:48.568Z,16.70
2022-10-24T19:42:16.547Z,16.70
2022-10-24T19:47:16.891Z,16.70
2022-10-24T19:49:44.700Z,16.70
2022-10-24T19:52:12.495Z,16.70
2022-10-24T19:54:40.298Z,16.70
2022-10-24T19:57:09.465Z,16.70
2022-10-24T19:59:37.309Z,16.70
2022-10-24T20:02:05.926Z,16.70
2022-10-24T20:04:38.874Z,16.70
2022-10-24T20:07:08.129Z,16.70
2022-10-24T20:09:36.758Z,16.70
2022-10-24T20:12:05.718Z,16.70
2022-10-24T20:14:34.870Z,16.70
2022-10-24T20:17:02.716Z,16.70
2022-10-24T20:19:30.540Z,16.60
2022-10-24T20:22:01.621Z,16.60
2022-10-24T20:24:30.586Z,16.60
2022-10-24T20:26:58.644Z,16.60
2022-10-24T20:29:26.543Z,16.60
2022-10-24T20:31:55.724Z,16.60
2022-10-24T20:34:23.537Z,16.60
2022-10-24T20:36:51.438Z,16.60
2022-10-24T20:39:21.020Z,16.60
2022-10-24T20:41:51.908Z,16.60
2022-10-24T20:44:22.254Z,16.60
2022-10-24T20:46:50.060Z,16.60
2022-10-24T20:49:19.272Z,16.50
2022-10-24T20:51:47.058Z,16.60
2022-10-24T20:54:14.902Z,16.50
2022-10-24T20:56:42.971Z,16.50
2022-10-24T20:59:12.695Z,16.50
2022-10-24T21:01:41.030Z,16.50
2022-10-24T21:04:08.942Z,16.50
2022-10-24T21:06:38.162Z,16.50
2022-10-24T21:09:07.434Z,16.40
2022-10-24T21:11:36.496Z,16.40
2022-10-24T21:14:06.469Z,16.40
2022-10-24T21:16:35.154Z,16.40
2022-10-24T21:19:03.238Z,16.40
2022-10-24T21:21:31.130Z,16.40
2022-10-24T21:24:04.365Z,16.40
2022-10-24T21:26:37.979Z,16.40
2022-10-24T21:29:31.775Z,16.40
2022-10-24T21:31:54.423Z,16.40
2022-10-24T21:34:22.243Z,16.40
2022-10-24T21:36:50.109Z,16.30
2022-10-24T21:39:19.290Z,16.30
2022-10-24T21:41:47.101Z,16.30
2022-10-24T21:44:15.078Z,16.30
2022-10-24T21:46:42.907Z,16.30
2022-10-24T21:49:11.219Z,16.30
2022-10-24T21:51:41.065Z,16.30
2022-10-24T21:54:15.465Z,16.30
2022-10-24T21:56:44.696Z,16.30
2022-10-24T21:59:15.003Z,16.30
2022-10-24T22:01:44.240Z,16.30
2022-10-24T22:04:13.096Z,16.30
2022-10-24T22:06:41.787Z,16.30
2022-10-24T22:09:13.438Z,16.30
2022-10-24T22:11:41.706Z,16.30
2022-10-24T22:14:12.997Z,16.30
2022-10-24T22:16:41.745Z,16.30
2022-10-24T22:19:11.028Z,16.30
2022-10-24T22:21:41.092Z,16.30
2022-10-24T22:24:11.804Z,16.30
2022-10-24T22:26:40.097Z,16.30
2022-10-24T22:29:11.038Z,16.30
2022-10-24T22:31:39.605Z,16.30
2022-10-24T22:34:07.831Z,16.30
2022-10-24T22:36:47.625Z,16.30
2022-10-24T22:39:17.321Z,16.30
2022-10-24T22:41:46.605Z,16.20
2022-10-24T22:44:17.775Z,16.20
2022-10-24T22:47:03.610Z,16.20
2022-10-24T22:49:40.440Z,16.20
2022-10-24T22:52:11.100Z,16.20
2022-10-24T22:54:39.877Z,16.20
2022-10-24T22:57:08.542Z,16.20
2022-10-24T22:59:38.341Z,16.10
2022-10-24T23:02:16.143Z,16.20
2022-10-24T23:04:54.865Z,16.10
2022-10-24T23:07:27.746Z,16.10
2022-10-24T23:09:55.813Z,16.10
2022-10-24T23:12:24.504Z,16.00
2022-10-24T23:14:54.522Z,16.00
2022-10-24T23:17:25.307Z,15.90
2022-10-24T23:19:54.328Z,15.90
2022-10-24T23:22:25.079Z,15.80
2022-10-24T23:24:54.585Z,15.80
2022-10-24T23:27:31.073Z,15.80
2022-10-24T23:30:01.256Z,15.70
2022-10-24T23:32:31.218Z,15.60
2022-10-24T23:35:00.703Z,15.60
2022-10-24T23:37:33.519Z,15.50
2022-10-24T23:40:03.033Z,15.50
2022-10-24T23:42:31.545Z,15.40
2022-10-24T23:45:01.418Z,15.40
2022-10-24T23:47:47.535Z,15.40
2022-10-24T23:50:22.840Z,15.30
2022-10-24T23:53:11.664Z,15.30
2022-10-24T23:55:39.994Z,15.30
2022-10-24T23:58:10.410Z,15.30
